Time;durP1;ratioP1;P1;durP2;ratioP2;P2;SDS_P1;SDS_P2;PMS_P1;PMS_P2;Temp;Humidity;BMP_temperature;BMP_pressure;BME280_temperature;BME280_humidity;BME280_pressure;Samples;Min_cycle;Max_cycle;Signal;HPM_P1;HPM_P2
2021/07/09 00:01:46;;;;;;;2.38;1.15;;;14.80;99.90;;;;;;5043335;28;20275;-75
2021/07/09 00:04:14;;;;;;;1.65;0.93;;;14.80;99.90;;;;;;5047284;28;20282;-75
2021/07/09 00:06:39;;;;;;;0.40;0.40;;;14.80;99.90;;;;;;5048778;28;20212;-75
2021/07/09 00:09:05;;;;;;;1.17;0.80;;;14.80;99.90;;;;;;5062674;28;20201;-75
2021/07/09 00:11:32;;;;;;;0.77;0.75;;;14.90;99.90;;;;;;5064996;28;20209;-75
2021/07/09 00:13:58;;;;;;;0.40;0.40;;;14.90;99.90;;;;;;5060821;28;20641;-75
2021/07/09 00:16:24;;;;;;;0.40;0.40;;;15.00;99.90;;;;;;5046078;28;20228;-75
2021/07/09 00:18:50;;;;;;;0.52;0.52;;;15.00;99.90;;;;;;5044740;28;20298;-74
2021/07/09 00:21:17;;;;;;;0.98;0.75;;;15.00;99.90;;;;;;5045896;28;20587;-75
2021/07/09 00:23:44;;;;;;;0.60;0.60;;;15.10;99.90;;;;;;5061646;28;20271;-75
2021/07/09 00:26:10;;;;;;;1.05;0.95;;;15.10;99.90;;;;;;5064043;28;20189;-75
2021/07/09 00:28:36;;;;;;;0.70;0.70;;;15.00;99.90;;;;;;5060512;28;20194;-75
2021/07/09 00:31:02;;;;;;;0.50;0.50;;;15.00;99.90;;;;;;5063618;28;20647;-76
2021/07/09 00:33:28;;;;;;;0.50;0.50;;;15.00;99.90;;;;;;5063694;28;20673;-75
2021/07/09 00:35:53;;;;;;;0.82;0.82;;;15.00;99.90;;;;;;5061221;28;20204;-75
2021/07/09 00:38:19;;;;;;;0.70;0.70;;;14.90;99.90;;;;;;5045486;28;20222;-76
2021/07/09 00:40:45;;;;;;;0.50;0.50;;;14.90;99.90;;;;;;5062418;28;20196;-75
2021/07/09 00:43:11;;;;;;;0.63;0.63;;;15.00;99.90;;;;;;5048345;28;20205;-75
2021/07/09 00:45:37;;;;;;;0.52;0.50;;;15.00;99.90;;;;;;5063327;28;20212;-75
2021/07/09 00:48:03;;;;;;;0.60;0.60;;;15.10;99.90;;;;;;5046768;28;20619;-75
2021/07/09 00:50:29;;;;;;;1.70;0.77;;;15.10;99.90;;;;;;5063042;28;20197;-75
2021/07/09 00:52:54;;;;;;;0.50;0.50;;;15.10;99.90;;;;;;5063195;28;20193;-76
2021/07/09 00:55:21;;;;;;;1.00;0.77;;;15.00;99.90;;;;;;5063249;28;20208;-75
2021/07/09 00:57:50;;;;;;;0.77;0.73;;;15.00;99.90;;;;;;5046165;28;20196;-75
2021/07/09 01:00:19;;;;;;;0.60;0.60;;;15.00;99.90;;;;;;5060850;28;20241;-74
2021/07/09 01:02:48;;;;;;;1.20;0.88;;;14.90;99.90;;;;;;5070130;28;20275;-74
2021/07/09 01:05:15;;;;;;;0.60;0.60;;;14.90;99.90;;;;;;5066328;28;20217;-74
2021/07/09 01:07:41;;;;;;;0.70;0.70;;;14.90;99.90;;;;;;5069463;28;20194;-74
2021/07/09 01:10:09;;;;;;;1.08;0.75;;;14.90;99.90;;;;;;5051499;28;20339;-74
2021/07/09 01:12:36;;;;;;;0.55;0.55;;;14.90;99.90;;;;;;5067296;28;20703;-75
2021/07/09 01:15:04;;;;;;;0.47;0.47;;;14.90;99.90;;;;;;5045964;28;20192;-74
2021/07/09 01:17:30;;;;;;;0.68;0.65;;;15.00;99.90;;;;;;5063935;28;20718;-74
2021/07/09 01:19:56;;;;;;;2.33;1.10;;;15.00;99.90;;;;;;5066983;28;20212;-73
2021/07/09 01:22:24;;;;;;;0.90;0.90;;;15.00;99.90;;;;;;5063115;28;20201;-73
2021/07/09 01:24:50;;;;;;;0.50;0.50;;;15.10;99.90;;;;;;5044380;28;20582;-73
2021/07/09 01:27:17;;;;;;;0.52;0.52;;;15.10;99.90;;;;;;5068364;28;20263;-74
2021/07/09 01:29:43;;;;;;;0.75;0.75;;;15.10;99.90;;;;;;5049451;28;20203;-73
2021/07/09 01:32:09;;;;;;;0.65;0.65;;;15.10;99.90;;;;;;5068643;28;20201;-74
2021/07/09 01:34:35;;;;;;;0.50;0.50;;;15.20;99.90;;;;;;5065610;28;20254;-74
2021/07/09 01:37:15;;;;;;;0.60;0.60;;;15.20;99.90;;;;;;5064532;28;20228;-74
2021/07/09 01:39:42;;;;;;;0.60;0.60;;;15.10;99.90;;;;;;5069001;28;20185;-74
2021/07/09 01:42:07;;;;;;;0.40;0.40;;;15.10;99.90;;;;;;5063859;28;20200;-74
2021/07/09 01:44:36;;;;;;;0.57;0.57;;;15.10;99.90;;;;;;5061928;28;20197;-74
2021/07/09 01:47:03;;;;;;;0.40;0.40;;;15.20;99.90;;;;;;5064555;28;20266;-74
2021/07/09 01:49:28;;;;;;;0.52;0.52;;;15.20;99.90;;;;;;5065278;28;20686;-74
2021/07/09 01:51:55;;;;;;;0.88;0.73;;;15.20;99.90;;;;;;5062399;28;20196;-74
2021/07/09 01:54:21;;;;;;;0.77;0.77;;;15.20;99.90;;;;;;5064003;28;20532;-74
2021/07/09 01:56:47;;;;;;;0.43;0.43;;;15.20;99.90;;;;;;5043214;28;20205;-73
2021/07/09 01:59:13;;;;;;;0.70;0.60;;;15.20;99.90;;;;;;5064305;28;20201;-75
2021/07/09 02:01:38;;;;;;;1.75;1.02;;;15.20;99.90;;;;;;5061817;28;20181;-74
2021/07/09 02:04:04;;;;;;;0.98;0.93;;;15.20;99.90;;;;;;5054089;28;20193;-74
2021/07/09 02:06:30;;;;;;;1.45;1.05;;;15.10;99.90;;;;;;5066516;28;20216;-74
2021/07/09 02:08:55;;;;;;;0.40;0.40;;;15.10;99.90;;;;;;5067630;28;20200;-74
2021/07/09 02:11:21;;;;;;;0.52;0.52;;;15.10;99.90;;;;;;5070544;28;20232;-74
2021/07/09 02:13:47;;;;;;;1.08;0.80;;;15.10;99.90;;;;;;5070692;28;20205;-74
2021/07/09 02:16:12;;;;;;;0.52;0.52;;;15.10;99.90;;;;;;5066065;28;20219;-74
2021/07/09 02:18:38;;;;;;;0.50;0.50;;;15.20;99.90;;;;;;5048546;28;20197;-74
2021/07/09 02:21:04;;;;;;;0.60;0.60;;;15.10;99.90;;;;;;5069048;28;20189;-74
2021/07/09 02:23:29;;;;;;;0.57;0.57;;;15.10;99.90;;;;;;5064098;28;20671;-73
2021/07/09 02:25:55;;;;;;;0.60;0.60;;;15.10;99.90;;;;;;5068196;28;20643;-74
2021/07/09 02:28:21;;;;;;;0.52;0.52;;;15.10;99.90;;;;;;5067449;28;20726;-74
2021/07/09 02:30:46;;;;;;;0.47;0.47;;;15.10;99.90;;;;;;5055158;28;20212;-74
2021/07/09 02:33:12;;;;;;;0.40;0.40;;;15.10;99.90;;;;;;5071787;28;20675;-74
2021/07/09 02:35:39;;;;;;;0.50;0.50;;;15.00;99.90;;;;;;5073328;28;20591;-74
2021/07/09 02:38:06;;;;;;;0.43;0.43;;;15.00;99.90;;;;;;5069336;28;20196;-74
2021/07/09 02:40:34;;;;;;;1.05;0.95;;;15.00;99.90;;;;;;5069096;28;20204;-74
2021/07/09 02:43:03;;;;;;;0.50;0.50;;;15.10;99.90;;;;;;5053088;28;20354;-74
2021/07/09 02:45:29;;;;;;;0.40;0.40;;;15.10;99.90;;;;;;5069160;28;20274;-74
2021/07/09 02:47:55;;;;;;;0.80;0.80;;;15.10;99.90;;;;;;5071493;28;20189;-74
2021/07/09 02:50:23;;;;;;;1.10;0.82;;;15.00;99.90;;;;;;5071414;28;20205;-74
2021/07/09 02:52:50;;;;;;;0.70;0.70;;;15.00;99.90;;;;;;5053572;28;20275;-74
2021/07/09 02:55:17;;;;;;;0.70;0.70;;;15.10;99.90;;;;;;5052708;28;20223;-74
2021/07/09 02:57:43;;;;;;;0.60;0.60;;;15.00;99.90;;;;;;5071493;28;20261;-74
2021/07/09 03:00:12;;;;;;;0.70;0.70;;;15.00;99.90;;;;;;5052298;28;20180;-74
2021/07/09 03:02:39;;;;;;;0.25;0.25;;;15.00;99.90;;;;;;5074076;28;20276;-75
2021/07/09 03:05:06;;;;;;;0.13;0.13;;;15.00;99.90;;;;;;5071536;28;20304;-75
2021/07/09 03:07:32;;;;;;;0.50;0.50;;;15.00;99.90;;;;;;5071164;28;20216;-74
2021/07/09 03:09:57;;;;;;;0.88;0.82;;;15.10;99.90;;;;;;5055940;28;20189;-74
2021/07/09 03:12:23;;;;;;;0.30;0.30;;;15.10;99.90;;;;;;5071097;28;20270;-74
2021/07/09 03:14:49;;;;;;;0.70;0.70;;;15.10;99.90;;;;;;5054775;28;20239;-74
2021/07/09 03:17:15;;;;;;;0.43;0.43;;;15.10;99.90;;;;;;5068494;28;20263;-74
2021/07/09 03:19:40;;;;;;;0.40;0.40;;;15.10;99.90;;;;;;5066629;28;20195;-74
2021/07/09 03:22:06;;;;;;;0.52;0.52;;;15.10;99.90;;;;;;5070648;28;20189;-74
2021/07/09 03:24:32;;;;;;;0.70;0.70;;;15.10;99.90;;;;;;5071767;28;20200;-74
2021/07/09 03:26:58;;;;;;;0.70;0.65;;;15.20;99.90;;;;;;5068914;28;20212;-74
2021/07/09 03:29:24;;;;;;;0.82;0.57;;;15.20;99.90;;;;;;5066686;28;20209;-74
2021/07/09 03:31:50;;;;;;;0.75;0.75;;;15.30;99.90;;;;;;5070815;28;21035;-75
2021/07/09 03:34:15;;;;;;;0.40;0.40;;;15.30;99.90;;;;;;5063939;28;20189;-74
2021/07/09 03:36:44;;;;;;;0.40;0.40;;;15.30;99.90;;;;;;5070942;28;20227;-74
2021/07/09 03:39:12;;;;;;;0.95;0.45;;;15.40;99.90;;;;;;5068416;28;20189;-74
2021/07/09 03:41:40;;;;;;;0.65;0.65;;;15.30;99.90;;;;;;5069821;28;20204;-74
2021/07/09 03:44:07;;;;;;;0.47;0.45;;;15.30;99.90;;;;;;5054436;28;20721;-74
2021/07/09 03:46:38;;;;;;;0.50;0.50;;;15.30;99.90;;;;;;5057233;28;20238;-74
2021/07/09 03:49:04;;;;;;;0.90;0.50;;;15.40;99.90;;;;;;5052984;28;20196;-75
2021/07/09 03:51:29;;;;;;;0.25;0.25;;;15.40;99.90;;;;;;5074095;28;20207;-74
2021/07/09 03:53:56;;;;;;;0.20;0.20;;;15.50;99.90;;;;;;5068765;28;20327;-74
2021/07/09 03:56:23;;;;;;;0.25;0.25;;;15.60;99.90;;;;;;5057425;28;20212;-74
2021/07/09 03:58:48;;;;;;;0.50;0.30;;;15.60;99.90;;;;;;5056562;28;20208;-75
2021/07/09 04:01:14;;;;;;;1.02;0.70;;;15.70;99.90;;;;;;5072961;28;20269;-74
2021/07/09 04:03:39;;;;;;;0.20;0.20;;;15.80;99.90;;;;;;5074913;28;20250;-74
2021/07/09 04:06:05;;;;;;;0.43;0.43;;;15.70;99.90;;;;;;5058077;28;20248;-74
2021/07/09 04:08:31;;;;;;;0.20;0.20;;;15.80;99.90;;;;;;5057363;28;20642;-74
2021/07/09 04:10:56;;;;;;;0.20;0.20;;;15.80;99.90;;;;;;5058239;28;20202;-74
2021/07/09 04:13:22;;;;;;;0.55;0.50;;;15.80;99.90;;;;;;5057378;28;20710;-74
2021/07/09 04:15:48;;;;;;;0.52;0.38;;;15.80;99.90;;;;;;5033553;28;20209;-70
2021/07/09 04:18:13;;;;;;;0.47;0.47;;;15.80;99.90;;;;;;5047830;28;20197;-69
2021/07/09 04:20:42;;;;;;;0.88;0.85;;;16.10;99.90;;;;;;5044384;28;20202;-70
2021/07/09 04:23:08;;;;;;;0.30;0.30;;;16.50;99.90;;;;;;5045412;28;20691;-71
2021/07/09 04:25:34;;;;;;;0.98;0.40;;;17.00;99.90;;;;;;5044800;28;20201;-70
2021/07/09 04:28:00;;;;;;;0.13;0.13;;;17.40;99.90;;;;;;5043532;28;20194;-70
2021/07/09 04:30:26;;;;;;;0.40;0.40;;;17.70;99.90;;;;;;5043956;28;21743;-70
2021/07/09 04:32:51;;;;;;;0.60;0.30;;;18.10;99.90;;;;;;5026056;28;20194;-70
2021/07/09 04:35:17;;;;;;;0.65;0.43;;;18.20;99.90;;;;;;5043891;28;20201;-70
2021/07/09 04:37:43;;;;;;;0.55;0.32;;;18.20;99.90;;;;;;5044070;28;20205;-69
2021/07/09 04:40:10;;;;;;;0.40;0.40;;;18.00;99.90;;;;;;5024992;28;20664;-70
2021/07/09 04:42:36;;;;;;;0.70;0.35;;;18.00;99.90;;;;;;5047027;28;20739;-70
2021/07/09 04:45:03;;;;;;;0.60;0.60;;;18.10;99.90;;;;;;5045690;28;20968;-70
2021/07/09 04:47:28;;;;;;;0.38;0.30;;;18.30;99.90;;;;;;5026586;28;20692;-70
2021/07/09 04:49:54;;;;;;;0.30;0.30;;;18.50;99.90;;;;;;5045433;28;20236;-70
2021/07/09 04:52:19;;;;;;;0.30;0.30;;;18.70;99.90;;;;;;5045650;28;20208;-70
2021/07/09 04:54:45;;;;;;;0.65;0.65;;;18.70;99.90;;;;;;5026628;28;20251;-70
2021/07/09 04:57:11;;;;;;;0.10;0.10;;;18.60;99.90;;;;;;5042517;28;20241;-70
2021/07/09 04:59:36;;;;;;;0.10;0.10;;;18.50;99.90;;;;;;5044930;28;20201;-70
2021/07/09 05:02:02;;;;;;;0.93;0.65;;;18.40;99.90;;;;;;5046542;28;20609;-70
2021/07/09 05:04:28;;;;;;;0.20;0.20;;;18.30;99.90;;;;;;5051530;28;20267;-70
2021/07/09 05:06:54;;;;;;;1.27;1.00;;;18.30;99.90;;;;;;5064318;28;20200;-70
2021/07/09 05:09:19;;;;;;;0.30;0.30;;;18.30;99.90;;;;;;5063454;28;20200;-70
2021/07/09 05:11:45;;;;;;;0.60;0.40;;;18.20;99.90;;;;;;5061146;28;20665;-70
2021/07/09 05:14:12;;;;;;;0.20;0.20;;;17.90;99.90;;;;;;5063389;28;20209;-69
2021/07/09 05:16:38;;;;;;;0.20;0.20;;;17.90;99.90;;;;;;5059609;28;20202;-70
2021/07/09 05:19:04;;;;;;;0.13;0.13;;;17.90;99.90;;;;;;5061138;28;20219;-70
2021/07/09 05:21:31;;;;;;;0.63;0.63;;;18.00;99.90;;;;;;5042362;28;20591;-70
2021/07/09 05:23:56;;;;;;;0.68;0.43;;;18.20;99.90;;;;;;5061527;28;20594;-71
2021/07/09 05:26:23;;;;;;;0.35;0.35;;;18.30;99.90;;;;;;5058149;28;20193;-69
2021/07/09 05:28:49;;;;;;;0.10;0.10;;;18.30;99.90;;;;;;5064022;28;20207;-69
2021/07/09 05:31:16;;;;;;;0.47;0.45;;;18.30;99.90;;;;;;5040287;28;20209;-69
2021/07/09 05:33:42;;;;;;;0.10;0.10;;;18.40;99.90;;;;;;5042264;28;20330;-69
2021/07/09 05:36:08;;;;;;;0.38;0.38;;;18.50;99.90;;;;;;5044244;28;20244;-69
2021/07/09 05:38:34;;;;;;;0.25;0.25;;;18.60;99.90;;;;;;5062614;28;21017;-70
2021/07/09 05:40:59;;;;;;;0.10;0.10;;;18.80;99.90;;;;;;5061980;28;20204;-70
2021/07/09 05:43:25;;;;;;;0.82;0.28;;;19.00;99.90;;;;;;5060656;28;20568;-70
2021/07/09 05:45:51;;;;;;;0.38;0.38;;;18.90;99.90;;;;;;5061672;28;20202;-71
2021/07/09 05:48:17;;;;;;;0.52;0.52;;;18.90;99.90;;;;;;5058068;28;20704;-69
2021/07/09 05:50:44;;;;;;;0.47;0.47;;;18.80;99.90;;;;;;5061019;28;20193;-69
2021/07/09 05:53:09;;;;;;;0.22;0.22;;;18.70;99.90;;;;;;5061561;28;20276;-69
2021/07/09 05:55:35;;;;;;;0.30;0.30;;;18.60;99.90;;;;;;5065350;28;20295;-70
2021/07/09 05:58:01;;;;;;;0.30;0.30;;;18.50;99.90;;;;;;5041702;28;20256;-69
2021/07/09 06:00:26;;;;;;;0.40;0.20;;;18.50;99.90;;;;;;5058088;28;20190;-69
2021/07/09 06:02:52;;;;;;;0.13;0.13;;;18.40;99.90;;;;;;5061050;28;20205;-70
2021/07/09 06:05:18;;;;;;;0.20;0.20;;;18.40;99.90;;;;;;5056193;28;20225;-71
2021/07/09 06:07:43;;;;;;;0.52;0.30;;;18.50;99.90;;;;;;5043170;28;20205;-70
2021/07/09 06:10:10;;;;;;;0.22;0.22;;;18.60;99.90;;;;;;5056521;28;20319;-70
2021/07/09 06:12:36;;;;;;;0.45;0.35;;;18.60;99.90;;;;;;5036714;28;20214;-70
2021/07/09 06:15:03;;;;;;;0.65;0.22;;;18.70;99.90;;;;;;5063997;28;20204;-70
2021/07/09 06:17:29;;;;;;;0.40;0.40;;;18.70;99.90;;;;;;5058766;28;20681;-70
2021/07/09 06:19:55;;;;;;;0.93;0.38;;;18.70;99.90;;;;;;5060662;28;20185;-70
2021/07/09 06:22:20;;;;;;;0.10;0.10;;;19.10;99.90;;;;;;5062204;28;20197;-70
2021/07/09 06:24:46;;;;;;;0.65;0.30;;;19.50;99.90;;;;;;5062674;28;20280;-70
2021/07/09 06:27:12;;;;;;;0.50;0.50;;;19.70;99.90;;;;;;5059232;28;20227;-71
2021/07/09 06:29:38;;;;;;;0.57;0.40;;;19.80;99.90;;;;;;5064578;28;20471;-71
2021/07/09 06:32:04;;;;;;;0.20;0.20;;;19.90;99.90;;;;;;5047031;28;20201;-70
2021/07/09 06:34:31;;;;;;;0.10;0.10;;;20.20;99.90;;;;;;5062227;28;20201;-71
2021/07/09 06:36:58;;;;;;;0.10;0.10;;;20.20;99.90;;;;;;5064261;28;20206;-71
2021/07/09 06:39:24;;;;;;;0.20;0.20;;;20.20;99.90;;;;;;5060877;28;20220;-70
2021/07/09 06:41:49;;;;;;;0.20;0.20;;;20.30;99.90;;;;;;5047703;28;20725;-71
2021/07/09 06:44:15;;;;;;;1.20;0.57;;;20.50;99.90;;;;;;5045129;28;20200;-71
2021/07/09 06:46:43;;;;;;;0.95;0.70;;;20.70;99.90;;;;;;5062293;28;20727;-70
2021/07/09 06:49:09;;;;;;;0.20;0.20;;;20.60;99.90;;;;;;5063345;28;20230;-70
2021/07/09 06:51:35;;;;;;;0.20;0.20;;;20.60;99.90;;;;;;5045106;28;20731;-71
2021/07/09 06:54:01;;;;;;;0.15;0.15;;;20.40;99.90;;;;;;5063841;28;20192;-70
2021/07/09 06:56:26;;;;;;;0.32;0.22;;;20.20;99.90;;;;;;5063699;28;20209;-71
2021/07/09 06:58:52;;;;;;;0.20;0.20;;;20.00;99.90;;;;;;5042471;28;20298;-72
2021/07/09 07:01:18;;;;;;;0.45;0.25;;;20.40;99.90;;;;;;5062755;28;20238;-70
2021/07/09 07:03:43;;;;;;;1.15;0.90;;;20.70;99.90;;;;;;5055896;28;20235;-72
2021/07/09 07:06:11;;;;;;;0.10;0.10;;;20.70;99.90;;;;;;5058510;28;20232;-71
2021/07/09 07:08:37;;;;;;;1.02;0.85;;;21.00;99.90;;;;;;5057170;28;20196;-72
2021/07/09 07:11:03;;;;;;;0.10;0.10;;;21.40;99.90;;;;;;5055467;28;20204;-73
2021/07/09 07:13:28;;;;;;;0.13;0.13;;;21.80;99.90;;;;;;5036679;28;20204;-73
2021/07/09 07:15:54;;;;;;;0.20;0.20;;;22.00;99.90;;;;;;5062014;28;20196;-74
2021/07/09 07:18:20;;;;;;;0.68;0.68;;;22.10;99.90;;;;;;5066414;28;20329;-72
2021/07/09 07:20:47;;;;;;;0.60;0.60;;;22.30;99.90;;;;;;5062801;28;20212;-72
2021/07/09 07:23:18;;;;;;;0.30;0.30;;;22.20;99.90;;;;;;5058315;28;20257;-72
2021/07/09 07:25:45;;;;;;;0.28;0.28;;;22.20;99.90;;;;;;5046366;28;20992;-72
2021/07/09 07:28:13;;;;;;;0.85;0.68;;;22.00;99.90;;;;;;5046141;28;20201;-72
2021/07/09 07:30:40;;;;;;;0.75;0.47;;;21.90;99.90;;;;;;5063605;28;20781;-72
2021/07/09 07:33:06;;;;;;;0.73;0.50;;;21.80;99.90;;;;;;5060519;28;20200;-72
2021/07/09 07:35:32;;;;;;;0.47;0.47;;;22.00;99.90;;;;;;5059006;28;20193;-72
2021/07/09 07:37:58;;;;;;;0.45;0.45;;;21.90;99.90;;;;;;5059523;28;20193;-72
2021/07/09 07:40:24;;;;;;;1.42;0.60;;;22.00;99.90;;;;;;5058213;28;20200;-72
2021/07/09 07:42:49;;;;;;;0.50;0.50;;;21.80;99.90;;;;;;5060112;28;20200;-72
2021/07/09 07:45:15;;;;;;;1.40;1.27;;;21.60;99.90;;;;;;5063247;28;20269;-72
2021/07/09 07:47:41;;;;;;;0.50;0.50;;;21.60;99.90;;;;;;5062673;28;20201;-72
2021/07/09 07:50:09;;;;;;;0.88;0.60;;;21.60;99.90;;;;;;5062159;28;20212;-72
2021/07/09 07:52:36;;;;;;;0.40;0.40;;;21.60;99.90;;;;;;5060768;28;20189;-72
2021/07/09 07:55:02;;;;;;;0.50;0.50;;;21.70;99.90;;;;;;5042458;28;20197;-72
2021/07/09 07:57:28;;;;;;;0.30;0.30;;;21.70;99.90;;;;;;5063473;28;20227;-72
2021/07/09 07:59:53;;;;;;;0.22;0.22;;;21.80;99.90;;;;;;5044477;28;21272;-72
2021/07/09 08:02:19;;;;;;;0.57;0.57;;;21.80;99.90;;;;;;5063768;28;20208;-72
2021/07/09 08:04:47;;;;;;;0.30;0.30;;;22.30;99.90;;;;;;5059114;28;20217;-72
2021/07/09 08:07:14;;;;;;;0.32;0.30;;;22.60;99.90;;;;;;5063948;28;20192;-72
2021/07/09 08:09:40;;;;;;;0.25;0.25;;;22.80;99.90;;;;;;5062081;28;20201;-73
2021/07/09 08:12:07;;;;;;;0.40;0.40;;;23.00;99.90;;;;;;5063369;28;20197;-72
2021/07/09 08:14:33;;;;;;;0.30;0.30;;;23.10;99.90;;;;;;5060475;28;20352;-72
2021/07/09 08:16:59;;;;;;;1.20;0.70;;;23.10;99.90;;;;;;5067413;28;20264;-72
2021/07/09 08:19:25;;;;;;;0.22;0.22;;;23.10;99.90;;;;;;5045130;28;20738;-72
2021/07/09 08:21:51;;;;;;;0.90;0.50;;;23.20;99.90;;;;;;5063751;28;20200;-73
2021/07/09 08:24:18;;;;;;;0.50;0.50;;;23.30;99.90;;;;;;5042141;28;20197;-72
2021/07/09 08:26:44;;;;;;;0.90;0.65;;;23.60;99.90;;;;;;5041630;28;20252;-72
2021/07/09 08:29:10;;;;;;;0.30;0.30;;;23.70;99.90;;;;;;5060400;28;20208;-72
2021/07/09 08:31:36;;;;;;;0.25;0.25;;;23.70;99.90;;;;;;5068089;28;20216;-72
2021/07/09 08:34:03;;;;;;;0.45;0.45;;;24.00;99.90;;;;;;5065709;28;20190;-72
2021/07/09 08:36:29;;;;;;;0.60;0.52;;;24.20;99.90;;;;;;5039183;28;20292;-74
2021/07/09 08:38:55;;;;;;;0.20;0.20;;;24.30;99.90;;;;;;5036835;28;20201;-73
2021/07/09 08:41:21;;;;;;;0.20;0.20;;;24.40;99.90;;;;;;5039390;28;20255;-73
2021/07/09 08:43:47;;;;;;;0.70;0.50;;;24.10;99.90;;;;;;5041218;28;20192;-73
2021/07/09 08:46:15;;;;;;;0.95;0.45;;;24.10;99.90;;;;;;5057201;28;20231;-71
2021/07/09 08:48:42;;;;;;;0.40;0.40;;;24.10;99.90;;;;;;5063454;28;20201;-71
2021/07/09 08:51:09;;;;;;;0.30;0.30;;;24.30;99.90;;;;;;5064233;28;20200;-72
2021/07/09 08:53:35;;;;;;;0.73;0.47;;;24.40;99.90;;;;;;5062730;28;20201;-72
2021/07/09 08:56:01;;;;;;;0.28;0.28;;;24.50;99.90;;;;;;5062438;28;20693;-72
2021/07/09 08:58:27;;;;;;;0.30;0.30;;;24.60;99.90;;;;;;5064925;28;20217;-72
2021/07/09 09:00:53;;;;;;;0.20;0.20;;;24.60;99.90;;;;;;5048928;28;20211;-72
2021/07/09 09:03:24;;;;;;;0.30;0.30;;;24.70;99.90;;;;;;5059368;28;20243;-72
2021/07/09 09:05:50;;;;;;;0.65;0.32;;;24.90;99.90;;;;;;5066491;28;20581;-72
2021/07/09 09:08:21;;;;;;;0.30;0.30;;;25.30;99.90;;;;;;5064680;28;20227;-73
2021/07/09 09:10:53;;;;;;;0.10;0.10;;;25.70;99.90;;;;;;5048350;28;20201;-72
2021/07/09 09:13:23;;;;;;;0.10;0.10;;;26.00;99.90;;;;;;5062145;28;20213;-72
2021/07/09 09:16:04;;;;;;;0.28;0.28;;;26.20;99.90;;;;;;5059845;28;20587;-72
2021/07/09 09:18:52;;;;;;;0.20;0.20;;;26.70;99.90;;;;;;5060615;28;20233;-72
2021/07/09 09:21:21;;;;;;;0.20;0.20;;;27.20;99.90;;;;;;5032302;28;20298;-71
2021/07/09 09:23:52;;;;;;;0.10;0.10;;;27.20;99.90;;;;;;5044541;28;20212;-72
2021/07/09 09:26:42;;;;;;;0.17;0.17;;;27.20;98.20;;;;;;5042573;28;20200;-71
2021/07/09 09:29:26;;;;;;;0.28;0.28;;;26.40;97.50;;;;;;5042451;28;20205;-71
2021/07/09 09:31:56;;;;;;;0.35;0.28;;;25.60;99.90;;;;;;5056494;28;20197;-71
2021/07/09 09:34:43;;;;;;;0.15;0.15;;;25.40;99.90;;;;;;5041907;28;20691;-70
2021/07/09 09:37:12;;;;;;;0.10;0.10;;;25.30;98.90;;;;;;5064387;28;20702;-71
2021/07/09 09:39:46;;;;;;;0.30;0.30;;;25.20;99.90;;;;;;5040781;28;20517;-71
2021/07/09 09:42:18;;;;;;;0.20;0.20;;;25.40;99.90;;;;;;5043466;28;20185;-72
2021/07/09 09:44:46;;;;;;;0.17;0.17;;;26.00;99.90;;;;;;5038471;28;20308;-72
2021/07/09 09:47:14;;;;;;;0.35;0.35;;;26.40;99.90;;;;;;5059548;28;20290;-71
2021/07/09 09:49:41;;;;;;;0.32;0.32;;;27.00;99.90;;;;;;5061205;28;20284;-72
2021/07/09 09:52:07;;;;;;;0.77;0.30;;;27.20;99.90;;;;;;5060734;28;20196;-72
2021/07/09 09:54:34;;;;;;;0.22;0.22;;;27.40;98.20;;;;;;5062409;28;20265;-72
2021/07/09 09:56:59;;;;;;;0.73;0.63;;;27.40;96.60;;;;;;5049861;28;20302;-74
2021/07/09 09:59:26;;;;;;;0.20;0.20;;;27.60;95.20;;;;;;5064994;28;20224;-74
2021/07/09 10:01:57;;;;;;;0.20;0.20;;;27.60;97.60;;;;;;5069913;28;20258;-75
2021/07/09 10:04:25;;;;;;;0.10;0.10;;;28.10;95.10;;;;;;5067893;28;20224;-75
2021/07/09 10:06:52;;;;;;;0.20;0.20;;;28.40;92.90;;;;;;5030777;28;20297;-75
2021/07/09 10:09:18;;;;;;;1.50;0.30;;;28.60;91.20;;;;;;5051261;28;20193;-75
2021/07/09 10:11:45;;;;;;;1.17;0.65;;;29.10;93.50;;;;;;5049796;28;20616;-73
2021/07/09 10:14:13;;;;;;;0.65;0.47;;;29.40;94.20;;;;;;5051433;28;20197;-74
2021/07/09 10:16:41;;;;;;;0.20;0.20;;;29.30;90.30;;;;;;5049272;28;20200;-74
2021/07/09 10:19:08;;;;;;;0.45;0.30;;;28.90;91.50;;;;;;5048837;28;20192;-75
2021/07/09 10:21:34;;;;;;;0.10;0.10;;;28.60;92.00;;;;;;5029841;28;20193;-74
2021/07/09 10:24:01;;;;;;;0.60;0.57;;;28.30;92.40;;;;;;5046215;28;20528;-75
2021/07/09 10:26:26;;;;;;;0.13;0.10;;;28.00;91.90;;;;;;5049344;28;20204;-75
2021/07/09 10:29:13;;;;;;;0.22;0.22;;;28.30;91.30;;;;;;5048678;28;20261;-75
2021/07/09 10:31:41;;;;;;;0.15;0.15;;;28.90;90.90;;;;;;5054700;28;20364;-75
2021/07/09 10:34:23;;;;;;;0.20;0.20;;;29.20;88.60;;;;;;5059931;28;20212;-75
2021/07/09 10:37:01;;;;;;;0.40;0.35;;;29.40;90.20;;;;;;5030751;28;20217;-75
2021/07/09 10:39:41;;;;;;;0.30;0.30;;;29.40;88.30;;;;;;5056269;28;20197;-75
2021/07/09 10:42:30;;;;;;;0.43;0.20;;;29.40;90.60;;;;;;5061349;28;20250;-75
2021/07/09 10:45:20;;;;;;;0.03;0.03;;;29.00;90.40;;;;;;5058932;28;20193;-75
2021/07/09 10:47:50;;;;;;;7.82;0.95;;;29.10;87.80;;;;;;5055418;28;20196;-75
2021/07/09 10:50:42;;;;;;;0.10;0.10;;;29.00;86.40;;;;;;5052248;28;20197;-75
2021/07/09 10:53:11;;;;;;;0.10;0.10;;;29.00;88.90;;;;;;5030755;28;20224;-75
2021/07/09 10:55:48;;;;;;;0.30;0.30;;;28.90;88.60;;;;;;5032002;28;20216;-75
2021/07/09 10:58:33;;;;;;;0.52;0.50;;;29.20;88.80;;;;;;5058618;28;20193;-75
2021/07/09 11:01:13;;;;;;;0.10;0.10;;;29.50;91.80;;;;;;5040295;28;20481;-75
2021/07/09 11:03:57;;;;;;;0.20;0.20;;;30.00;84.70;;;;;;5055042;28;20828;-75
2021/07/09 11:06:31;;;;;;;0.93;0.38;;;30.30;84.90;;;;;;5033123;28;20299;-75
2021/07/09 11:09:02;;;;;;;0.70;0.28;;;30.20;82.90;;;;;;5036573;28;20197;-75
2021/07/09 11:11:49;;;;;;;0.52;0.40;;;30.10;87.80;;;;;;5056654;28;20597;-74
2021/07/09 11:14:33;;;;;;;0.15;0.15;;;29.80;88.40;;;;;;5035905;28;20204;-74
2021/07/09 11:17:15;;;;;;;0.20;0.20;;;29.80;89.10;;;;;;5054107;28;20209;-76
2021/07/09 11:19:41;;;;;;;0.80;0.40;;;30.10;81.60;;;;;;5056302;28;20959;-75
2021/07/09 11:22:09;;;;;;;0.45;0.45;;;30.30;81.40;;;;;;5058796;28;20192;-75
2021/07/09 11:24:56;;;;;;;0.20;0.20;;;30.30;82.60;;;;;;5056599;28;20777;-75
2021/07/09 11:27:25;;;;;;;0.30;0.30;;;30.20;83.30;;;;;;5029720;28;20199;-75
2021/07/09 11:29:57;;;;;;;0.20;0.20;;;29.80;84.30;;;;;;5057190;28;20245;-75
2021/07/09 11:32:23;;;;;;;0.30;0.20;;;29.70;84.00;;;;;;5031341;28;20204;-74
2021/07/09 11:34:49;;;;;;;0.30;0.30;;;29.70;82.70;;;;;;5055130;28;20193;-75
2021/07/09 11:37:18;;;;;;;0.50;0.30;;;29.70;81.40;;;;;;5057196;28;20204;-75
2021/07/09 11:39:53;;;;;;;0.10;0.10;;;29.90;86.10;;;;;;5055924;28;20235;-75
2021/07/09 11:42:20;;;;;;;10.75;1.05;;;30.30;86.90;;;;;;5055947;28;20203;-75
2021/07/09 11:44:50;;;;;;;0.60;0.40;;;30.50;83.20;;;;;;5053353;28;20193;-75
2021/07/09 11:47:18;;;;;;;0.17;0.17;;;30.30;81.40;;;;;;5055521;28;20202;-75
2021/07/09 11:50:12;;;;;;;0.15;0.15;;;30.30;82.00;;;;;;5034617;28;20270;-75
2021/07/09 11:52:39;;;;;;;0.17;0.17;;;30.20;86.70;;;;;;5054297;28;20197;-75
2021/07/09 11:55:08;;;;;;;0.20;0.20;;;30.20;82.60;;;;;;5031559;28;20200;-74
2021/07/09 11:57:41;;;;;;;0.17;0.17;;;30.10;81.50;;;;;;5054351;28;20584;-74
2021/07/09 12:00:14;;;;;;;0.47;0.47;;;29.30;83.20;;;;;;5043761;28;20985;-72
2021/07/09 12:02:42;;;;;;;0.20;0.20;;;28.70;81.50;;;;;;5045699;28;20547;-72
2021/07/09 12:05:13;;;;;;;0.20;0.20;;;27.90;88.40;;;;;;5056200;28;20224;-73
2021/07/09 12:07:42;;;;;;;0.50;0.50;;;27.20;87.80;;;;;;5064438;28;20204;-72
2021/07/09 12:10:12;;;;;;;0.20;0.20;;;26.70;90.60;;;;;;5057815;28;20192;-72
2021/07/09 12:12:39;;;;;;;0.40;0.40;;;26.70;89.80;;;;;;5063591;28;20728;-72
2021/07/09 12:15:09;;;;;;;0.65;0.22;;;27.70;90.40;;;;;;5041141;28;20207;-74
2021/07/09 12:17:38;;;;;;;1.02;0.70;;;28.60;89.20;;;;;;5063057;28;20295;-73
2021/07/09 12:20:10;;;;;;;0.28;0.22;;;28.40;87.60;;;;;;5062610;28;20672;-72
2021/07/09 12:22:38;;;;;;;0.38;0.20;;;28.10;84.30;;;;;;5034007;28;20196;-73
2021/07/09 12:25:07;;;;;;;0.40;0.20;;;27.40;87.20;;;;;;5040158;28;20303;-72
2021/07/09 12:27:35;;;;;;;0.20;0.20;;;27.20;88.30;;;;;;5062139;28;20291;-73
2021/07/09 12:30:11;;;;;;;0.30;0.30;;;27.00;89.60;;;;;;5060163;28;20245;-72
2021/07/09 12:32:58;;;;;;;0.20;0.20;;;27.00;90.90;;;;;;5062199;28;20207;-73
2021/07/09 12:35:24;;;;;;;0.10;0.10;;;26.90;90.60;;;;;;5060063;28;20215;-73
2021/07/09 12:38:09;;;;;;;1.73;0.85;;;26.90;92.40;;;;;;5063227;28;20682;-72
2021/07/09 12:40:49;;;;;;;2.03;1.80;;;27.10;90.80;;;;;;5043204;28;20223;-73
2021/07/09 12:43:25;;;;;;;9.85;1.77;;;27.80;90.60;;;;;;5063418;28;20203;-73
2021/07/09 12:46:04;;;;;;;0.90;0.88;;;28.70;90.30;;;;;;5056459;28;20220;-72
2021/07/09 12:48:33;;;;;;;1.80;0.82;;;29.80;85.80;;;;;;5055196;28;20192;-73
2021/07/09 12:51:00;;;;;;;0.50;0.50;;;30.40;83.00;;;;;;5056139;28;20732;-73
2021/07/09 12:53:29;;;;;;;0.85;0.30;;;30.50;81.90;;;;;;5061249;28;20224;-72